createdAt,value
2018-03-25T00:00:41.071Z,27.20
2018-03-25T00:01:41.043Z,28.00
2018-03-25T00:02:41.069Z,26.70
2018-03-25T00:03:41.048Z,27.80
2018-03-25T00:04:41.015Z,28.00
2018-03-25T00:05:41.013Z,27.90
2018-03-25T00:06:41.002Z,27.60
2018-03-25T00:07:40.981Z,28.00
2018-03-25T00:08:40.971Z,27.40
2018-03-25T00:09:40.980Z,27.70
2018-03-25T00:10:40.950Z,27.20
2018-03-25T00:11:40.952Z,28.10
2018-03-25T00:12:40.925Z,27.30
2018-03-25T00:13:40.918Z,26.40
2018-03-25T00:14:40.906Z,26.80
2018-03-25T00:15:40.910Z,27.10
2018-03-25T00:16:40.886Z,27.70
2018-03-25T00:17:40.873Z,27.00
2018-03-25T00:18:40.863Z,26.10
2018-03-25T00:19:40.852Z,26.50
2018-03-25T00:20:40.843Z,27.10
2018-03-25T00:21:40.842Z,28.10
2018-03-25T00:22:40.822Z,27.80
2018-03-25T00:23:40.822Z,27.90
2018-03-25T00:24:40.800Z,27.10
2018-03-25T00:25:40.787Z,29.80
2018-03-25T00:26:40.780Z,27.90
2018-03-25T00:27:40.863Z,28.90
2018-03-25T00:28:40.763Z,30.50
2018-03-25T00:29:40.750Z,28.40
2018-03-25T00:30:40.773Z,28.30
2018-03-25T00:31:40.725Z,28.00
2018-03-25T00:32:40.717Z,29.60
2018-03-25T00:33:40.718Z,29.60
2018-03-25T00:34:40.694Z,27.40
2018-03-25T00:35:40.699Z,27.90
2018-03-25T00:36:40.674Z,27.90
2018-03-25T00:37:40.660Z,27.00
2018-03-25T00:38:40.654Z,29.20
2018-03-25T00:39:40.654Z,26.30
2018-03-25T00:40:40.705Z,26.50
2018-03-25T00:41:40.638Z,28.30
2018-03-25T00:42:40.608Z,27.00
2018-03-25T00:43:40.603Z,25.50
2018-03-25T00:44:40.602Z,25.70
2018-03-25T00:45:40.591Z,25.70
2018-03-25T00:46:40.573Z,25.30
2018-03-25T00:47:40.558Z,25.70
2018-03-25T00:48:40.549Z,25.60
2018-03-25T00:49:40.538Z,25.30
2018-03-25T00:50:40.527Z,25.40
2018-03-25T00:51:40.520Z,25.70
2018-03-25T00:52:40.507Z,24.60
2018-03-25T00:53:40.499Z,25.60
2018-03-25T00:54:40.482Z,25.80
2018-03-25T00:55:40.476Z,24.60
2018-03-25T00:56:40.463Z,24.10
2018-03-25T00:57:40.451Z,24.50
2018-03-25T00:58:40.441Z,23.40
2018-03-25T00:59:40.432Z,24.00
2018-03-25T01:00:40.422Z,24.30
2018-03-25T01:01:40.410Z,24.50
2018-03-25T01:02:40.402Z,24.30
2018-03-25T01:03:40.392Z,24.70
2018-03-25T01:04:40.381Z,23.30
2018-03-25T01:05:40.365Z,23.90
2018-03-25T01:06:40.367Z,25.00
2018-03-25T01:07:40.374Z,23.90
2018-03-25T01:08:40.344Z,25.70
2018-03-25T01:09:40.325Z,24.10
2018-03-25T01:10:40.315Z,23.90
2018-03-25T01:11:40.304Z,23.70
2018-03-25T01:12:40.339Z,24.70
2018-03-25T01:13:40.281Z,24.50
2018-03-25T01:14:40.276Z,24.30
2018-03-25T01:15:40.278Z,24.00
2018-03-25T01:16:40.249Z,24.30
2018-03-25T01:17:40.241Z,25.60
2018-03-25T01:18:40.233Z,25.10
2018-03-25T01:19:40.219Z,24.10
2018-03-25T01:20:40.208Z,24.90
2018-03-25T01:21:40.201Z,24.20
2018-03-25T01:22:40.186Z,23.40
2018-03-25T01:23:40.177Z,24.50
2018-03-25T01:24:40.167Z,24.30
2018-03-25T01:25:40.159Z,23.30
2018-03-25T01:26:40.145Z,23.80
2018-03-25T01:27:40.135Z,24.20
2018-03-25T01:28:40.164Z,23.40
2018-03-25T01:29:40.126Z,24.50
2018-03-25T01:30:40.106Z,25.00
2018-03-25T01:31:40.103Z,23.70
2018-03-25T01:32:40.084Z,22.80
2018-03-25T01:33:40.072Z,23.90
2018-03-25T01:34:40.073Z,23.20
2018-03-25T01:35:40.058Z,22.80
2018-03-25T01:36:40.040Z,23.90
2018-03-25T01:37:40.027Z,22.80
2018-03-25T01:38:40.021Z,22.80
2018-03-25T01:39:40.009Z,24.00
2018-03-25T01:40:39.998Z,24.40
2018-03-25T01:41:39.985Z,23.90
2018-03-25T01:42:39.976Z,24.70
2018-03-25T01:43:39.965Z,25.30
2018-03-25T01:44:39.956Z,24.70
2018-03-25T01:45:39.943Z,25.50
2018-03-25T01:46:39.936Z,24.60
2018-03-25T01:47:39.920Z,24.70
2018-03-25T01:48:39.925Z,24.70
2018-03-25T01:49:39.917Z,24.70
2018-03-25T01:50:39.889Z,24.50
2018-03-25T01:51:39.891Z,24.40
2018-03-25T01:52:39.867Z,24.10
2018-03-25T01:53:39.858Z,24.10
2018-03-25T01:54:39.847Z,24.60
2018-03-25T01:55:39.837Z,25.10
2018-03-25T01:56:39.842Z,24.70
2018-03-25T01:57:39.812Z,25.20
2018-03-25T01:58:39.807Z,24.90
2018-03-25T01:59:39.808Z,24.60
2018-03-25T02:00:39.795Z,25.00
2018-03-25T02:01:39.768Z,24.00
2018-03-25T02:02:39.774Z,24.70
2018-03-25T02:03:39.751Z,24.60
2018-03-25T02:04:39.737Z,24.10
2018-03-25T02:05:39.727Z,26.10
2018-03-25T02:06:39.714Z,24.30
2018-03-25T02:07:39.707Z,24.30
2018-03-25T02:08:39.710Z,24.90
2018-03-25T02:09:39.684Z,24.60
2018-03-25T02:10:39.674Z,24.80
2018-03-25T02:11:39.672Z,24.30
2018-03-25T02:12:39.655Z,25.50
2018-03-25T02:13:39.642Z,24.40
2018-03-25T02:14:39.630Z,24.50
2018-03-25T02:15:39.619Z,24.70
2018-03-25T02:16:39.621Z,24.90
2018-03-25T02:17:39.596Z,24.90
2018-03-25T02:18:39.584Z,24.70
2018-03-25T02:19:39.585Z,25.10
2018-03-25T02:20:39.563Z,25.90
2018-03-25T02:21:39.567Z,25.00
2018-03-25T02:22:39.540Z,25.90
2018-03-25T02:23:39.532Z,25.20
2018-03-25T02:24:39.520Z,25.30
2018-03-25T02:25:39.511Z,26.70
2018-03-25T02:26:39.496Z,24.80
2018-03-25T02:27:39.487Z,25.00
2018-03-25T02:28:39.486Z,26.70
2018-03-25T02:29:39.463Z,24.70
2018-03-25T02:30:39.459Z,26.20
2018-03-25T02:31:39.445Z,24.00
2018-03-25T02:32:39.442Z,25.60
2018-03-25T02:33:39.421Z,25.60
2018-03-25T02:34:39.425Z,26.00
2018-03-25T02:35:39.398Z,26.20
2018-03-25T02:36:39.398Z,26.80
2018-03-25T02:37:39.379Z,26.60
2018-03-25T02:38:39.363Z,25.90
2018-03-25T02:39:39.364Z,24.70
2018-03-25T02:40:39.348Z,26.20
2018-03-25T02:41:39.335Z,25.60
2018-03-25T02:42:39.331Z,25.00
2018-03-25T02:43:39.311Z,26.40
2018-03-25T02:44:39.309Z,25.10
2018-03-25T02:45:39.304Z,24.50
2018-03-25T02:46:39.277Z,25.40
2018-03-25T02:47:39.266Z,26.20
2018-03-25T02:48:39.256Z,26.10
2018-03-25T02:49:39.242Z,25.60
2018-03-25T02:50:39.243Z,26.10
2018-03-25T02:51:39.217Z,25.40
2018-03-25T02:52:39.223Z,25.30
2018-03-25T02:53:39.197Z,25.30
2018-03-25T02:54:39.187Z,25.30
2018-03-25T02:55:39.190Z,26.30
2018-03-25T02:56:39.188Z,26.40
2018-03-25T02:57:39.162Z,26.10
2018-03-25T02:58:39.139Z,25.90
2018-03-25T02:59:39.140Z,25.00
2018-03-25T03:00:39.130Z,24.40
2018-03-25T03:01:39.109Z,25.70
2018-03-25T03:02:39.098Z,24.50
2018-03-25T03:03:39.108Z,25.40
2018-03-25T03:04:39.075Z,24.60
2018-03-25T03:05:39.073Z,25.50
2018-03-25T03:06:39.052Z,24.60
2018-03-25T03:07:39.055Z,25.20
2018-03-25T03:08:39.029Z,25.60
2018-03-25T03:09:39.018Z,25.90
2018-03-25T03:10:39.017Z,25.70
2018-03-25T03:11:38.992Z,25.60
2018-03-25T03:12:38.994Z,23.80
2018-03-25T03:13:38.975Z,25.20
2018-03-25T03:14:38.971Z,24.40
2018-03-25T03:15:38.950Z,25.80
2018-03-25T03:16:38.939Z,25.30
2018-03-25T03:17:38.925Z,24.50
2018-03-25T03:18:38.918Z,23.30
2018-03-25T03:19:38.907Z,23.90
2018-03-25T03:20:38.895Z,25.10
2018-03-25T03:21:38.884Z,24.00
2018-03-25T03:22:38.871Z,24.70
2018-03-25T03:23:38.862Z,24.90
2018-03-25T03:24:38.861Z,24.30
2018-03-25T03:25:38.840Z,23.30
2018-03-25T03:26:38.842Z,23.60
2018-03-25T03:27:38.826Z,25.40
2018-03-25T03:28:38.806Z,24.30
2018-03-25T03:29:38.795Z,24.20
2018-03-25T03:30:38.784Z,24.70
2018-03-25T03:31:38.793Z,25.00
2018-03-25T03:32:38.761Z,24.50
2018-03-25T03:33:38.749Z,25.00
2018-03-25T03:34:38.744Z,25.00
2018-03-25T03:35:38.728Z,24.80
2018-03-25T03:36:38.719Z,24.70
2018-03-25T03:37:38.705Z,24.70
2018-03-25T03:38:38.706Z,24.40
2018-03-25T03:39:38.684Z,23.70
2018-03-25T03:40:38.673Z,24.80
2018-03-25T03:41:38.662Z,24.80
2018-03-25T03:42:38.648Z,24.50
2018-03-25T03:43:38.638Z,25.30
2018-03-25T03:44:38.639Z,24.30
2018-03-25T03:45:38.616Z,25.20
2018-03-25T03:46:38.607Z,24.30
2018-03-25T03:47:38.593Z,25.00
2018-03-25T03:48:38.584Z,26.60
2018-03-25T03:49:38.572Z,25.50
2018-03-25T03:50:38.560Z,25.80
2018-03-25T03:51:38.554Z,25.90
2018-03-25T03:52:38.541Z,25.40
2018-03-25T03:53:38.538Z,24.50
2018-03-25T03:54:38.518Z,25.20
2018-03-25T03:55:38.518Z,25.70
2018-03-25T03:56:38.498Z,24.70
2018-03-25T03:57:38.482Z,26.50
2018-03-25T03:58:38.484Z,25.50
2018-03-25T03:59:38.461Z,25.20
2018-03-25T04:00:38.463Z,25.00
2018-03-25T04:01:38.438Z,25.70
2018-03-25T04:02:38.439Z,25.80
2018-03-25T04:03:38.428Z,25.70
2018-03-25T04:04:38.407Z,24.60
2018-03-25T04:05:38.406Z,25.10
2018-03-25T04:06:38.381Z,25.70
2018-03-25T04:07:38.374Z,25.60
2018-03-25T04:08:38.364Z,24.80
2018-03-25T04:09:38.351Z,24.30
2018-03-25T04:10:38.353Z,24.60
2018-03-25T04:11:38.329Z,25.40
2018-03-25T04:12:38.331Z,25.10
2018-03-25T04:13:38.308Z,24.20
2018-03-25T04:14:38.295Z,24.90
2018-03-25T04:15:38.297Z,25.20
2018-03-25T04:16:38.274Z,25.10
2018-03-25T04:17:38.261Z,25.40
2018-03-25T04:18:38.253Z,25.40
2018-03-25T04:19:38.252Z,25.00
2018-03-25T04:20:38.240Z,25.10
2018-03-25T04:21:38.222Z,25.50
2018-03-25T04:22:38.208Z,25.50
2018-03-25T04:23:38.197Z,25.70
2018-03-25T04:24:38.199Z,25.70
2018-03-25T04:25:38.171Z,25.30
2018-03-25T04:26:38.163Z,25.50
2018-03-25T04:27:38.163Z,25.50
2018-03-25T04:28:38.151Z,25.40
2018-03-25T04:29:38.133Z,26.30
2018-03-25T04:30:38.128Z,25.80
2018-03-25T04:31:38.104Z,26.10
2018-03-25T04:32:38.096Z,26.20
2018-03-25T04:33:38.092Z,26.00
2018-03-25T04:34:38.072Z,26.20
2018-03-25T04:35:38.076Z,25.60
2018-03-25T04:36:38.053Z,26.80
2018-03-25T04:37:38.051Z,26.40
2018-03-25T04:38:38.028Z,25.80
2018-03-25T04:39:38.019Z,26.70
2018-03-25T04:40:38.006Z,26.90
2018-03-25T04:41:37.994Z,26.70
2018-03-25T04:42:37.986Z,26.90
2018-03-25T04:43:37.975Z,26.70
2018-03-25T04:44:37.963Z,25.40
2018-03-25T04:45:37.949Z,26.80
2018-03-25T04:46:37.953Z,25.70
2018-03-25T04:47:37.927Z,26.50
2018-03-25T04:48:37.917Z,25.20
2018-03-25T04:49:37.904Z,27.80
2018-03-25T04:50:37.908Z,26.30
2018-03-25T04:51:37.882Z,25.80
2018-03-25T04:52:37.886Z,26.80
2018-03-25T04:53:37.875Z,28.10
2018-03-25T04:54:37.851Z,27.40
2018-03-25T04:55:37.839Z,27.50
2018-03-25T04:56:37.832Z,27.40
2018-03-25T04:57:37.818Z,28.30
2018-03-25T04:58:37.807Z,27.90
2018-03-25T04:59:37.806Z,26.70
2018-03-25T05:00:37.787Z,26.30
2018-03-25T05:01:37.796Z,26.40
2018-03-25T05:02:37.773Z,27.60
2018-03-25T05:03:37.753Z,27.30
2018-03-25T05:04:37.742Z,27.60
2018-03-25T05:05:37.731Z,26.90
2018-03-25T05:06:37.718Z,28.30
2018-03-25T05:07:37.706Z,27.90
2018-03-25T05:08:37.698Z,27.30
2018-03-25T05:09:37.690Z,27.30
2018-03-25T05:10:37.675Z,27.50
2018-03-25T05:11:37.663Z,28.60
2018-03-25T05:12:37.650Z,28.00
2018-03-25T05:13:37.640Z,29.00
2018-03-25T05:14:37.626Z,26.60
2018-03-25T05:15:37.621Z,28.20
2018-03-25T05:16:37.623Z,27.70
2018-03-25T05:17:37.599Z,27.40
2018-03-25T05:18:37.595Z,26.60
2018-03-25T05:19:37.588Z,27.70
2018-03-25T05:20:37.572Z,27.60
2018-03-25T05:21:37.563Z,28.30
2018-03-25T05:22:37.554Z,28.10
2018-03-25T05:23:37.533Z,27.90
2018-03-25T05:24:37.519Z,27.40
2018-03-25T05:25:37.509Z,27.30
2018-03-25T05:26:37.494Z,27.30
2018-03-25T05:27:37.483Z,26.70
2018-03-25T05:28:37.473Z,27.00
2018-03-25T05:29:37.465Z,27.20
2018-03-25T05:30:37.467Z,28.20
2018-03-25T05:31:37.452Z,27.50
2018-03-25T05:32:37.428Z,27.20
2018-03-25T05:33:37.419Z,27.60
2018-03-25T05:34:37.421Z,27.90
2018-03-25T05:35:37.412Z,28.10
2018-03-25T05:36:37.397Z,27.20
2018-03-25T05:37:37.380Z,27.20
2018-03-25T05:38:37.364Z,28.00
2018-03-25T05:39:37.354Z,26.90
2018-03-25T05:40:37.344Z,28.10
2018-03-25T05:41:37.330Z,27.20
2018-03-25T05:42:37.318Z,27.60
2018-03-25T05:43:37.320Z,28.30
2018-03-25T05:44:37.297Z,27.20
2018-03-25T05:45:37.302Z,28.00
2018-03-25T05:46:37.289Z,27.90
2018-03-25T05:47:37.271Z,28.00
2018-03-25T05:48:37.265Z,27.60
2018-03-25T05:49:37.245Z,28.60
2018-03-25T05:50:37.233Z,27.20
2018-03-25T05:51:37.223Z,27.90
2018-03-25T05:52:37.232Z,27.90
2018-03-25T05:53:37.202Z,28.10
2018-03-25T05:54:37.191Z,26.90
2018-03-25T05:55:37.178Z,28.10
2018-03-25T05:56:37.170Z,26.80
2018-03-25T05:57:37.167Z,28.10
2018-03-25T05:58:37.161Z,28.50
2018-03-25T05:59:37.136Z,29.30
2018-03-25T06:00:37.124Z,29.10
2018-03-25T06:01:37.116Z,29.10
2018-03-25T06:02:37.103Z,28.80
2018-03-25T06:03:37.103Z,27.90
2018-03-25T06:04:37.081Z,29.00
2018-03-25T06:05:37.069Z,28.30
2018-03-25T06:06:37.060Z,27.90
2018-03-25T06:07:37.052Z,28.50
2018-03-25T06:08:37.040Z,28.30
2018-03-25T06:09:37.027Z,28.50
2018-03-25T06:10:37.016Z,28.70
2018-03-25T06:11:37.018Z,28.90
2018-03-25T06:12:36.998Z,28.90
2018-03-25T06:13:36.986Z,29.20
2018-03-25T06:14:36.986Z,28.40
2018-03-25T06:15:36.988Z,29.10
2018-03-25T06:16:36.965Z,29.20
2018-03-25T06:17:37.006Z,29.60
2018-03-25T06:18:36.933Z,28.70
2018-03-25T06:19:36.921Z,29.30
2018-03-25T06:20:36.929Z,29.00
2018-03-25T06:21:36.899Z,29.50
2018-03-25T06:22:36.901Z,30.80
2018-03-25T06:23:36.890Z,29.90
2018-03-25T06:24:36.879Z,29.30
2018-03-25T06:25:36.870Z,28.70
2018-03-25T06:26:36.847Z,29.50
2018-03-25T06:27:36.846Z,30.10
2018-03-25T06:28:36.832Z,30.30
2018-03-25T06:29:36.827Z,30.60
2018-03-25T06:30:36.816Z,29.90
2018-03-25T06:31:36.816Z,30.10
2018-03-25T06:32:36.797Z,30.50
2018-03-25T06:33:36.774Z,30.10
2018-03-25T06:34:36.765Z,30.40
2018-03-25T06:35:36.754Z,30.90
2018-03-25T06:36:36.745Z,29.70
2018-03-25T06:37:36.732Z,31.10
2018-03-25T06:38:36.747Z,29.70
2018-03-25T06:39:36.712Z,31.20
2018-03-25T06:40:36.701Z,30.80
2018-03-25T06:41:36.691Z,31.30
2018-03-25T06:42:36.678Z,31.10
2018-03-25T06:43:36.677Z,29.70
2018-03-25T06:44:36.669Z,29.80
2018-03-25T06:45:36.648Z,31.30
2018-03-25T06:46:36.638Z,30.80
2018-03-25T06:47:36.629Z,30.70
2018-03-25T06:48:36.722Z,30.40
2018-03-25T06:49:36.616Z,31.30
2018-03-25T06:50:36.595Z,29.20
2018-03-25T06:51:36.587Z,31.30
2018-03-25T06:52:36.575Z,29.70
2018-03-25T06:53:36.576Z,31.20
2018-03-25T06:54:36.566Z,30.30
2018-03-25T06:55:36.547Z,30.50
2018-03-25T06:56:36.535Z,29.70
2018-03-25T06:57:36.520Z,30.10
2018-03-25T06:58:36.513Z,29.80
2018-03-25T06:59:36.502Z,30.40
2018-03-25T07:00:36.504Z,30.40
2018-03-25T07:01:36.481Z,29.70
2018-03-25T07:02:36.483Z,30.00
2018-03-25T07:03:36.473Z,30.60
2018-03-25T07:04:36.464Z,29.40
2018-03-25T07:05:36.453Z,31.50
2018-03-25T07:06:36.442Z,30.80
2018-03-25T07:07:36.421Z,31.30
2018-03-25T07:08:36.410Z,30.50
2018-03-25T07:09:36.400Z,30.60
2018-03-25T07:10:36.390Z,31.50
2018-03-25T07:11:36.380Z,30.00
2018-03-25T07:12:36.375Z,30.90
2018-03-25T07:13:36.358Z,31.90
2018-03-25T07:14:36.361Z,31.10
2018-03-25T07:15:36.338Z,31.20
2018-03-25T07:16:36.343Z,31.30
2018-03-25T07:17:36.318Z,30.50
2018-03-25T07:18:36.319Z,31.20
2018-03-25T07:19:36.311Z,31.70
2018-03-25T07:20:36.315Z,30.40
2018-03-25T07:21:36.290Z,31.10
2018-03-25T07:22:36.274Z,32.00
2018-03-25T07:23:36.268Z,30.00
2018-03-25T07:24:36.249Z,31.90
2018-03-25T07:25:36.250Z,31.50
2018-03-25T07:26:36.233Z,31.90
2018-03-25T07:27:36.230Z,30.50
2018-03-25T07:28:36.218Z,31.10
2018-03-25T07:29:36.199Z,31.70
2018-03-25T07:30:36.190Z,32.00
2018-03-25T07:31:36.181Z,31.70
2018-03-25T07:32:36.169Z,32.40
2018-03-25T07:33:36.191Z,31.40
2018-03-25T07:34:36.165Z,31.10
2018-03-25T07:35:36.140Z,30.50
2018-03-25T07:36:36.131Z,30.60
2018-03-25T07:37:36.120Z,30.30
2018-03-25T07:38:36.120Z,31.60
2018-03-25T07:39:36.102Z,31.30
2018-03-25T07:40:36.092Z,30.60
2018-03-25T07:41:36.105Z,30.10
2018-03-25T07:42:36.071Z,30.40
2018-03-25T07:43:36.080Z,31.10
2018-03-25T07:44:36.052Z,31.20
2018-03-25T07:45:36.041Z,32.20
2018-03-25T07:46:36.032Z,31.40
2018-03-25T07:47:36.022Z,31.80
2018-03-25T07:48:36.012Z,30.60
2018-03-25T07:49:36.012Z,32.00
2018-03-25T07:50:35.993Z,30.70
2018-03-25T07:51:35.994Z,30.20
2018-03-25T07:52:35.986Z,31.40
2018-03-25T07:53:35.963Z,31.90
2018-03-25T07:54:35.954Z,30.00
2018-03-25T07:55:35.946Z,31.20
2018-03-25T07:56:35.938Z,31.00
2018-03-25T07:57:35.927Z,31.10
2018-03-25T07:58:35.930Z,31.70
2018-03-25T07:59:35.908Z,30.90
2018-03-25T08:00:35.916Z,31.00
2018-03-25T08:01:35.888Z,30.20
2018-03-25T08:02:35.891Z,30.40
2018-03-25T08:03:35.901Z,31.40
2018-03-25T08:04:35.872Z,31.20
2018-03-25T08:05:35.852Z,30.60
2018-03-25T08:06:35.844Z,31.00
2018-03-25T08:07:35.834Z,31.30
2018-03-25T08:08:35.828Z,31.20
2018-03-25T08:09:35.815Z,30.80
2018-03-25T08:10:35.806Z,31.80
2018-03-25T08:11:35.800Z,31.10
2018-03-25T08:12:35.798Z,29.50
2018-03-25T08:13:35.780Z,30.90
2018-03-25T08:14:35.768Z,30.50
2018-03-25T08:15:35.762Z,30.50
2018-03-25T08:16:35.751Z,30.30
2018-03-25T08:17:35.758Z,30.50
2018-03-25T08:18:35.734Z,30.70
2018-03-25T08:19:35.722Z,29.70
2018-03-25T08:20:35.730Z,30.10
2018-03-25T08:21:35.717Z,28.40
2018-03-25T08:22:35.718Z,30.30
2018-03-25T08:23:35.686Z,30.20
2018-03-25T08:24:35.678Z,29.00
2018-03-25T08:25:35.669Z,28.90
2018-03-25T08:26:35.660Z,29.20
2018-03-25T08:27:35.652Z,29.40
2018-03-25T08:28:35.662Z,29.10
2018-03-25T08:29:35.646Z,30.20
2018-03-25T08:30:35.640Z,29.60
2018-03-25T08:31:35.629Z,30.30
2018-03-25T08:32:35.620Z,30.20
2018-03-25T08:33:35.600Z,31.00
2018-03-25T08:34:35.593Z,30.80
2018-03-25T08:35:35.585Z,31.20
2018-03-25T08:36:35.572Z,30.10
2018-03-25T08:37:35.566Z,31.30
2018-03-25T08:38:35.567Z,30.70
2018-03-25T08:39:35.560Z,30.20
2018-03-25T08:40:35.551Z,30.20
2018-03-25T08:41:35.533Z,30.90
2018-03-25T08:42:35.522Z,30.30
2018-03-25T08:43:35.515Z,29.70
2018-03-25T08:44:35.507Z,30.10
2018-03-25T08:45:35.495Z,32.30
2018-03-25T08:46:35.562Z,31.20
2018-03-25T08:47:35.490Z,30.40
2018-03-25T08:48:35.471Z,30.20
2018-03-25T08:49:35.475Z,31.20
2018-03-25T08:50:35.509Z,30.60
2018-03-25T08:51:35.456Z,30.90
2018-03-25T08:52:35.479Z,30.10
2018-03-25T08:53:35.440Z,29.90
2018-03-25T08:54:35.421Z,30.50
2018-03-25T08:55:35.481Z,30.80
2018-03-25T08:56:35.414Z,29.60
2018-03-25T08:57:35.407Z,30.10
2018-03-25T08:58:35.387Z,31.10
2018-03-25T08:59:35.404Z,30.80
2018-03-25T09:00:35.372Z,29.80
2018-03-25T09:01:35.377Z,29.90
2018-03-25T09:02:35.352Z,30.60
2018-03-25T09:03:35.343Z,29.10
2018-03-25T09:04:35.349Z,30.00
2018-03-25T09:05:35.330Z,29.20
2018-03-25T09:06:35.322Z,31.00
2018-03-25T09:07:35.312Z,30.50
2018-03-25T09:08:35.322Z,30.20
2018-03-25T09:09:35.300Z,29.70
2018-03-25T09:10:35.287Z,30.30
2018-03-25T09:11:35.290Z,31.00
2018-03-25T09:12:35.283Z,29.60
2018-03-25T09:13:35.289Z,30.60
2018-03-25T09:14:35.269Z,30.70
2018-03-25T09:15:35.251Z,30.00
2018-03-25T09:16:35.243Z,30.40
2018-03-25T09:17:35.232Z,29.00
2018-03-25T09:18:35.223Z,30.60
2018-03-25T09:19:35.215Z,30.60
2018-03-25T09:20:35.220Z,30.30
2018-03-25T09:21:35.200Z,29.20
2018-03-25T09:22:35.207Z,29.30
2018-03-25T09:23:35.185Z,30.80
2018-03-25T09:24:35.205Z,29.30
2018-03-25T09:25:35.230Z,30.50
2018-03-25T09:26:35.164Z,29.60
2018-03-25T09:27:35.156Z,30.60
2018-03-25T09:28:35.145Z,30.80
2018-03-25T09:29:35.151Z,29.90
2018-03-25T09:30:35.134Z,31.30
2018-03-25T09:31:35.124Z,31.20
2018-03-25T09:32:35.118Z,30.10
2018-03-25T09:33:35.111Z,32.20
2018-03-25T09:34:35.114Z,31.00
2018-03-25T09:35:35.096Z,30.40
2018-03-25T09:36:35.090Z,30.80
2018-03-25T09:37:35.097Z,31.70
2018-03-25T09:38:35.075Z,32.20
2018-03-25T09:39:35.077Z,31.50
2018-03-25T09:40:35.061Z,32.60
2018-03-25T09:41:35.063Z,31.40
2018-03-25T09:42:35.046Z,31.90
2018-03-25T09:43:35.048Z,31.50
2018-03-25T09:44:35.033Z,31.80
2018-03-25T09:45:35.036Z,31.80
2018-03-25T09:46:35.017Z,32.20
2018-03-25T09:47:35.009Z,31.70
2018-03-25T09:48:35.060Z,32.20
2018-03-25T09:49:35.007Z,32.10
2018-03-25T09:50:35.011Z,33.50
2018-03-25T09:51:35.002Z,31.90
2018-03-25T09:52:34.989Z,32.80
2018-03-25T09:53:34.980Z,34.20
2018-03-25T09:54:34.986Z,34.90
2018-03-25T09:55:34.953Z,34.70
2018-03-25T09:56:34.949Z,34.50
2018-03-25T09:57:34.943Z,34.50
2018-03-25T09:58:34.997Z,35.10
2018-03-25T09:59:34.942Z,33.70
2018-03-25T10:00:34.923Z,34.70
2018-03-25T10:01:34.914Z,34.60
2018-03-25T10:02:34.906Z,34.50
2018-03-25T10:03:34.911Z,34.30
2018-03-25T10:04:34.905Z,34.60
2018-03-25T10:05:34.903Z,34.10
2018-03-25T10:06:34.881Z,34.60
2018-03-25T10:07:34.885Z,34.20
2018-03-25T10:08:34.877Z,33.90
2018-03-25T10:09:34.864Z,34.30
2018-03-25T10:10:34.857Z,33.80
2018-03-25T10:11:34.847Z,35.80
2018-03-25T10:12:34.842Z,35.30
2018-03-25T10:13:34.845Z,35.00
2018-03-25T10:14:34.842Z,34.50
2018-03-25T10:15:34.826Z,35.30
2018-03-25T10:16:34.833Z,34.80
2018-03-25T10:17:34.831Z,33.80
2018-03-25T10:18:34.825Z,36.10
2018-03-25T10:19:34.807Z,35.30
2018-03-25T10:20:34.792Z,35.00
2018-03-25T10:21:34.786Z,34.50
2018-03-25T10:22:34.785Z,34.40
2018-03-25T10:23:34.782Z,36.40
2018-03-25T10:24:34.766Z,35.00
2018-03-25T10:25:34.831Z,35.20
2018-03-25T10:26:36.842Z,35.00
2018-03-25T10:27:34.772Z,35.70
2018-03-25T10:28:34.783Z,34.60
2018-03-25T10:29:34.757Z,34.60
2018-03-25T10:30:34.744Z,35.10
2018-03-25T10:31:34.740Z,34.80
2018-03-25T10:32:34.726Z,34.60
2018-03-25T10:33:34.718Z,34.10
2018-03-25T10:34:34.737Z,34.20
2018-03-25T10:35:34.720Z,34.80
2018-03-25T10:36:34.717Z,34.70
2018-03-25T10:37:34.715Z,33.90
2018-03-25T10:38:34.699Z,34.60
2018-03-25T10:39:34.694Z,34.60
2018-03-25T10:40:34.692Z,33.90
2018-03-25T10:41:34.687Z,34.40
2018-03-25T10:42:34.684Z,34.80
2018-03-25T10:43:34.734Z,34.10
2018-03-25T10:44:34.683Z,33.40
2018-03-25T10:45:34.676Z,33.70
2018-03-25T10:46:34.670Z,33.90
2018-03-25T10:47:34.675Z,34.00
2018-03-25T10:48:34.683Z,34.30
2018-03-25T10:49:35.398Z,35.90
2018-03-25T10:50:34.686Z,32.90
2018-03-25T10:51:34.661Z,34.80
2018-03-25T10:52:34.693Z,34.40
2018-03-25T10:53:34.656Z,33.50
2018-03-25T10:54:34.656Z,34.00
2018-03-25T10:55:34.651Z,33.40
2018-03-25T10:56:34.660Z,32.60
2018-03-25T10:57:34.652Z,33.20
2018-03-25T10:58:34.647Z,32.40
2018-03-25T10:59:34.650Z,34.00
2018-03-25T11:00:34.643Z,32.80
2018-03-25T11:01:34.639Z,31.40
2018-03-25T11:02:34.663Z,33.20
2018-03-25T11:03:34.637Z,33.20
2018-03-25T11:04:34.637Z,32.50
2018-03-25T11:05:34.631Z,32.60
2018-03-25T11:06:34.642Z,33.70
2018-03-25T11:07:34.630Z,31.60
2018-03-25T11:08:34.633Z,34.60
2018-03-25T11:09:34.624Z,32.80
2018-03-25T11:10:34.634Z,33.40
2018-03-25T11:11:34.624Z,34.20
2018-03-25T11:12:34.623Z,33.30
2018-03-25T11:13:34.622Z,33.30
2018-03-25T11:14:34.620Z,33.20
2018-03-25T11:15:34.618Z,33.20
2018-03-25T11:16:34.623Z,34.00
2018-03-25T11:17:34.617Z,32.40
2018-03-25T11:18:34.625Z,32.40
2018-03-25T11:19:34.614Z,32.20
2018-03-25T11:20:34.628Z,31.00
2018-03-25T11:21:34.627Z,31.00
2018-03-25T11:22:34.623Z,30.60
2018-03-25T11:23:34.627Z,30.90
2018-03-25T11:24:34.677Z,30.70
2018-03-25T11:25:34.616Z,31.30
2018-03-25T11:26:34.619Z,35.30
2018-03-25T11:27:34.620Z,34.20
2018-03-25T11:28:34.661Z,30.10
2018-03-25T11:29:34.616Z,32.10
2018-03-25T11:30:34.631Z,32.30
2018-03-25T11:31:34.624Z,31.20
2018-03-25T11:32:34.646Z,47.00
2018-03-25T11:33:34.627Z,41.70
2018-03-25T11:34:34.627Z,38.60
2018-03-25T11:35:34.628Z,32.50
2018-03-25T11:36:34.643Z,30.40
2018-03-25T11:37:34.643Z,32.00
2018-03-25T11:38:34.653Z,30.20
2018-03-25T11:39:34.650Z,31.80
2018-03-25T11:40:34.641Z,30.60
2018-03-25T11:41:34.657Z,28.30
2018-03-25T11:42:34.656Z,27.90
2018-03-25T11:43:34.650Z,26.50
2018-03-25T11:44:34.652Z,27.20
2018-03-25T11:45:34.679Z,26.90
2018-03-25T11:46:34.658Z,29.30
2018-03-25T11:47:34.673Z,28.40
2018-03-25T11:48:34.675Z,28.30
2018-03-25T11:49:34.666Z,28.20
2018-03-25T11:50:34.667Z,29.10
2018-03-25T11:51:34.673Z,28.60
2018-03-25T11:52:34.679Z,28.40
2018-03-25T11:53:34.699Z,28.30
2018-03-25T11:54:34.692Z,28.20
2018-03-25T11:55:34.684Z,29.50
2018-03-25T11:56:34.689Z,29.30
2018-03-25T11:57:34.691Z,27.20
2018-03-25T11:58:34.695Z,25.20
2018-03-25T11:59:34.698Z,25.70
2018-03-25T12:00:34.698Z,26.00
2018-03-25T12:01:34.701Z,26.20
2018-03-25T12:02:34.713Z,25.70
2018-03-25T12:03:34.707Z,26.60
2018-03-25T12:04:34.712Z,26.70
2018-03-25T12:05:34.711Z,26.30
2018-03-25T12:06:34.713Z,27.00
2018-03-25T12:07:34.716Z,25.60
2018-03-25T12:08:34.719Z,25.20
2018-03-25T12:09:34.732Z,26.60
2018-03-25T12:10:34.739Z,27.00
2018-03-25T12:11:34.745Z,27.70
2018-03-25T12:12:34.732Z,28.00
2018-03-25T12:13:34.744Z,30.10
2018-03-25T12:14:34.743Z,27.50
2018-03-25T12:15:34.748Z,27.60
2018-03-25T12:16:34.768Z,27.00
2018-03-25T12:17:34.741Z,27.80
2018-03-25T12:18:34.754Z,26.50
2018-03-25T12:19:34.757Z,27.60
2018-03-25T12:20:34.748Z,26.50
2018-03-25T12:21:34.762Z,26.60
2018-03-25T12:22:34.755Z,27.30
2018-03-25T12:23:34.757Z,27.10
2018-03-25T12:24:34.759Z,26.60
2018-03-25T12:25:34.762Z,27.20
2018-03-25T12:26:34.779Z,28.60
2018-03-25T12:27:34.776Z,28.10
2018-03-25T12:28:34.768Z,27.30
2018-03-25T12:29:34.773Z,27.00
2018-03-25T12:30:34.772Z,26.60
2018-03-25T12:31:34.789Z,27.20
2018-03-25T12:32:34.788Z,25.80
2018-03-25T12:33:34.786Z,26.90
2018-03-25T12:34:34.792Z,26.90
2018-03-25T12:35:34.797Z,26.50
2018-03-25T12:36:34.787Z,27.40
2018-03-25T12:37:34.788Z,26.90
2018-03-25T12:38:34.795Z,23.90
2018-03-25T12:39:34.799Z,25.40
2018-03-25T12:40:34.817Z,24.90
2018-03-25T12:41:34.820Z,25.00
2018-03-25T12:42:34.812Z,24.10
2018-03-25T12:43:34.796Z,25.20
2018-03-25T12:44:34.800Z,25.60
2018-03-25T12:45:34.799Z,25.50
2018-03-25T12:46:34.797Z,25.80
2018-03-25T12:47:34.814Z,25.90
2018-03-25T12:48:34.802Z,25.30
2018-03-25T12:49:34.797Z,25.50
2018-03-25T12:50:34.800Z,25.10
2018-03-25T12:51:34.802Z,26.10
2018-03-25T12:52:34.809Z,26.30